Tuesday, January 23, 2018, 6:58 PM EST
Back to Local

KDOV, Dover Air Force Base

Location: Dover, DE, United States Lat: 39.133
Local Time: 6:58 PM EST (23:58 GMT) Lon: -75.467
Time Zone: US/Eastern Elev: 29 ft

Show me the last for .
Show Decoded

2018-01-23 17:56 METAR KDOV 232256Z AUTO 29012KT 10SM CLR 11/08 A2970 RMK AO2 SLP061 T01110081 $
                 =
2018-01-23 16:56 METAR KDOV 232156Z 30006KT 10SM FEW042 SCT055 12/12 A2965 RMK AO2A RAE48 SLP044
                 P0006 T01220122 $ =
2018-01-23 16:48 METAR KDOV 232148Z 30007KT 10SM FEW037 BKN045 BKN060 13/13 A2965 RMK AO2A RAE48
                 SLP044 $ =
2018-01-23 15:56 METAR KDOV 232056Z 30006KT 3SM -RA BKN042 OVC055 14/14 A2960 RMK AO2A RAB40
                 TSE1956 SLP027 P0002 60010 T01440144 53015 $ =
2018-01-23 15:48 METAR KDOV 232048Z 29005KT 2 1/2SM RA BR BKN042 BKN050 OVC060 15/15 A2960 RMK
                 RAB40 TSE1956 SLP027 $ =
2018-01-23 15:40 METAR KDOV 232040Z 29007KT 10SM -RA FEW040 BKN050 BKN060 15/15 A2960 RMK AO2A
                 RAB40 TSE1956 PRESRR SLP027 $ =
2018-01-23 15:14 METAR KDOV 232014Z 30005KT 10SM FEW049 16/16 A2957 RMK TSE1956 LTG DSNT SE
                 SLP017 $ =
2018-01-23 14:56 METAR KDOV 231956Z COR 29005KT 10SM VCTS FEW047 15/15 A2956 RMK AO2A TSE56
                 SLP013 $ COR 2000 =
2018-01-23 14:55 METAR KDOV 231955Z 28007KT 10SM TS FEW030CB SCT040 15/15 A2956 RMK AO2A TS 12E
                 AND 5 SE-S MOV NE SLP013 P0008 T01470147 $ =
2018-01-23 14:32 METAR KDOV 231932Z 00000KT 7SM TS FEW014 SCT030CB BKN048 14/14 A2955 RMK AO2A TS
                 4 SE AND 5 S MOV NE SLP010 $ =
2018-01-23 14:22 METAR KDOV 231922Z COR 30008KT 5SM -TSRA BR FEW020 BKN030CB OVC049 13/13 A2955
                 RMK AO2A TS 7S MOV E SLP010 $ COR 1926 =
2018-01-23 13:55 METAR KDOV 231855Z 28016G21KT 5SM -RA BR BKN019 BKN024 OVC034 18/18 A2955 RMK
                 AO2A TS 12W MOV E SLP010 T01790179 $ =
2018-01-23 13:43 METAR KDOV 231843Z 20012KT 10SM SCT018 SCT030 19/19 A2954 RMK AO2A TS 15W MOV E
                 SLP006 $ =
2018-01-23 13:38 METAR KDOV 231838Z 20007KT 10SM SCT020 SCT018 19/19 A2953 RMK AO2A SLP003 $ =
2018-01-23 12:57 METAR KDOV 231757Z 21015G20KT 10SM BKN015 BKN021 18/18 A2956 RMK AO2A BKN015 V
                 SCT SLP013 60036 T01790179 10179 20143 57034 $ =
2018-01-23 11:56 METAR KDOV 231656Z 19014G20KT 10SM BKN015 OVC025 17/17 A2960 RMK AO2A PK WND
                 19027/12 CIG 013 RWY19 SLP027 P0000 T01660166 $ =
2018-01-23 11:35 METAR KDOV 231635Z 19014G20KT 10SM -RA BKN013 BKN018 OVC085 16/16 A2961 RMK AO2A
                 SLP030 $ =
2018-01-23 11:15 METAR KDOV 231615Z 19014G22KT 10SM SCT013 OVC085 16/16 A2962 RMK AO2A SLP033 $ =
2018-01-23 10:57 METAR KDOV 231557Z 20018G27KT 10SM -RA BKN014 BKN049 17/17 A2962 RMK AO2A PK WND
                 19028/10 CIG 014V030 SLP033 P0001 T01670167 $ =
2018-01-23 10:10 METAR KDOV 231510Z 19019G28KT 10SM -RA SCT016 BKN080 16/16 A2966 RMK AO2A SLP047
                 $ =
2018-01-23 09:58 METAR KDOV 231458Z 19018G29KT 7SM SCT016 SCT030 BKN080 16/16 A2966 RMK PK WND
                 18032/1444 RAE28 SLP047 P0000 T01640164 $ =
2018-01-23 09:28 METAR KDOV 231428Z 18018G23KT 10SM FEW021 FEW030 BKN075 16/16 A2966 RMK AO2A
                 PRESFR SLP047 $ =
2018-01-23 09:01 METAR KDOV 231401Z 17013KT 5SM -RA BR FEW005 BKN010 BKN018 15/15 A2969 RMK AO2A
                 CIG 008V014 SLP057 $ =
2018-01-23 08:55 METAR KDOV 231355Z 17011G15KT 1 3/4SM RA BR BKN008 BKN013 OVC020 15/15 A2970 RMK
                 AO2A TWR VIS 3/4 VIS 7/8V2 CIG 008V012 BKN008 V SCT PRESFR SLP061 P0032
                 T01490149 $ =
2018-01-23 08:44 METAR KDOV 231344Z 21012KT 1SM R01/P6000FT +RA BR FEW005 OVC010 15/15 A2972 RMK
                 AO2A TWR VIS 3/4 PRESRR SLP067 $ =
2018-01-23 08:27 METAR KDOV 231327Z 17015G20KT 4SM -RA BR BKN014 BKN029 BKN041 15/15 A2969 RMK
                 AO2A TWR VIS 3 SLP057 $ =
2018-01-23 08:17 METAR KDOV 231317Z 17014G20KT 6SM -RA BR SCT014 BKN048 OVC065 15/15 A2970 RMK
                 AO2A TWR VIS 3 SLP061 $ =
2018-01-23 08:14 METAR KDOV 231314Z 17014G20KT 6SM -RA BR SCT014 BKN047 OVC065 15/15 A2970 RMK
                 AO2A SLP061 $ =
2018-01-23 07:55 METAR KDOV 231255Z 16017G22KT 7SM -RA FEW048 BKN070 OVC090 15/15 A2970 RMK AO2A
                 SLP061 P0002 T01460146 $ =
2018-01-23 06:55 METAR KDOV 231155Z 15014KT 7SM -RA SCT030 BKN060 14/14 A2975 RMK AO2A PRESFR
                 SLP078 P0003 60003 70003 T01440144 10145 20079 57032 $ =
2018-01-23 06:39 METAR KDOV 231139Z 17013G19KT 10SM -RA BKN075 15/15 A2977 RMK RAB38 SLP084 $ =
2018-01-23 06:38 METAR KDOV 231138Z AUTO 17013KT 10SM -RA FEW075 15/15 A2977 RMK AO2 RAB38 SLP084
                 $ =
2018-01-23 05:56 METAR KDOV 231056Z AUTO 16010KT 10SM BKN055 BKN080 BKN130 14/14 A2979 RMK AO2
                 SLP091 T01390139 $ =
2018-01-23 04:56 METAR KDOV 230956Z AUTO 17010KT 10SM SCT046 BKN055 BKN120 13/13 A2981 RMK AO2
                 SLP098 T01330133 $ =
2018-01-23 03:56 METAR KDOV 230856Z AUTO 15005KT 10SM FEW022 SCT039 BKN085 BKN130 OVC150 11/11
                 A2984 RMK AO2 SLP108 T01080108 57040 $ =
2018-01-23 02:56 METAR KDOV 230756Z AUTO 15008KT 10SM SCT016 BKN080 BKN130 10/10 A2988 RMK AO2
                 PRESFR SLP122 T00990099 $ =
2018-01-23 02:46 METAR KDOV 230746Z AUTO 16009KT 10SM BKN018 BKN043 OVC140 10/10 A2990 RMK AO2
                 CIG 018V040 BKN018 V SCT CIG 017 RWY19 SLP128 $ =
2018-01-23 01:56 METAR KDOV 230656Z AUTO 17009KT 10SM FEW140 09/09 A2992 RMK AO2 SLP135 T00940094
                 $ =
2018-01-23 00:56 METAR KDOV 230556Z AUTO 16008KT 10SM CLR 08/08 A2996 RMK AO2 SLP149 T00830083
                 10112 20048 58018 $ =
2018-01-22 23:56 METAR KDOV 230456Z AUTO 15008KT 10SM SCT100 09/09 A2998 RMK AO2 SLP155 T00890086
                 401920048 $ =
2018-01-22 22:56 METAR KDOV 230356Z AUTO 18005KT 10SM OVC095 11/08 A3002 RMK AO2 SLP169 T01090081
                 $ =
2018-01-22 21:56 METAR KDOV 230256Z AUTO 16008KT 10SM CLR 09/07 A3001 RMK AO2 SLP166 T00940073
                 57016 $ =
2018-01-22 20:56 METAR KDOV 230156Z AUTO 11006KT 10SM CLR 05/05 A3003 RMK AO2 SLP172 T00500050 $
                 =
2018-01-22 19:56 METAR KDOV 230056Z AUTO 12005KT 10SM CLR 07/07 A3005 RMK AO2 SLP179 T00730070 $
                 =

Support USWX by starting your Amazon purchase here.